createdAt,value
2022-12-03T00:00:12.594Z,2.80
2022-12-03T00:03:01.137Z,2.71
2022-12-03T00:05:29.028Z,3.05
2022-12-03T00:07:57.133Z,4.84
2022-12-03T00:10:24.950Z,6.46
2022-12-03T00:12:53.225Z,7.13
2022-12-03T00:15:21.072Z,6.36
2022-12-03T00:17:48.863Z,5.48
2022-12-03T00:20:20.424Z,4.85
2022-12-03T00:22:48.176Z,4.34
2022-12-03T00:25:16.705Z,3.92
2022-12-03T00:27:44.640Z,3.62
2022-12-03T00:30:14.369Z,3.43
2022-12-03T00:32:42.602Z,3.30
2022-12-03T00:35:10.549Z,3.16
2022-12-03T00:37:38.420Z,3.03
2022-12-03T00:40:07.572Z,2.90
2022-12-03T00:42:35.601Z,3.00
2022-12-03T00:45:05.445Z,4.54
2022-12-03T00:47:33.236Z,6.16
2022-12-03T00:50:00.976Z,6.75
2022-12-03T00:52:28.740Z,6.05
2022-12-03T00:54:56.612Z,5.30
2022-12-03T00:57:24.561Z,4.79
2022-12-03T00:59:52.355Z,4.38
2022-12-03T01:02:20.183Z,4.04
2022-12-03T01:04:48.505Z,3.73
2022-12-03T01:07:16.280Z,3.45
2022-12-03T01:09:44.012Z,3.22
2022-12-03T01:12:12.058Z,3.08
2022-12-03T01:14:39.860Z,3.18
2022-12-03T01:17:07.879Z,4.66
2022-12-03T01:19:36.456Z,6.36
2022-12-03T01:22:04.778Z,6.97
2022-12-03T01:24:32.542Z,6.20
2022-12-03T01:27:00.933Z,5.40
2022-12-03T01:29:28.655Z,4.82
2022-12-03T01:32:15.023Z,4.34
2022-12-03T01:34:47.504Z,3.92
2022-12-03T01:37:15.599Z,3.61
2022-12-03T01:39:43.619Z,3.41
2022-12-03T01:42:16.201Z,3.28
2022-12-03T01:44:44.857Z,3.14
2022-12-03T01:47:18.220Z,3.21
2022-12-03T01:50:03.323Z,4.78
2022-12-03T01:52:34.661Z,6.60
2022-12-03T01:55:05.853Z,6.78
2022-12-03T01:57:44.632Z,5.85
2022-12-03T02:00:18.215Z,5.02
2022-12-03T02:02:48.626Z,4.46
2022-12-03T02:05:19.826Z,4.01
2022-12-03T02:07:47.836Z,3.65
2022-12-03T02:10:17.211Z,3.39
2022-12-03T02:12:54.132Z,3.19
2022-12-03T02:15:22.424Z,3.21
2022-12-03T02:17:50.431Z,4.65
2022-12-03T02:20:18.828Z,6.36
2022-12-03T02:23:00.532Z,7.00
2022-12-03T02:25:32.001Z,6.12
2022-12-03T02:28:00.626Z,5.25
2022-12-03T02:30:31.588Z,4.63
2022-12-03T02:33:00.008Z,4.17
2022-12-03T02:35:31.782Z,3.85
2022-12-03T02:38:14.178Z,3.56
2022-12-03T02:40:41.891Z,3.29
2022-12-03T02:43:10.605Z,3.09
2022-12-03T02:45:40.222Z,3.30
2022-12-03T02:48:20.132Z,5.13
2022-12-03T02:50:53.799Z,6.92
2022-12-03T02:53:44.441Z,7.05
2022-12-03T02:56:14.677Z,5.99
2022-12-03T02:58:44.130Z,5.25
2022-12-03T03:01:12.402Z,4.67
2022-12-03T03:03:40.218Z,4.23
2022-12-03T03:06:08.632Z,3.92
2022-12-03T03:08:37.788Z,3.69
2022-12-03T03:11:05.835Z,3.50
2022-12-03T03:13:35.389Z,3.59
2022-12-03T03:16:05.978Z,5.09
2022-12-03T03:18:34.713Z,6.71
2022-12-03T03:21:03.720Z,7.13
2022-12-03T03:23:31.491Z,6.34
2022-12-03T03:26:02.214Z,5.56
2022-12-03T03:28:30.930Z,4.96
2022-12-03T03:31:00.720Z,4.60
2022-12-03T03:33:28.772Z,4.28
2022-12-03T03:35:57.184Z,3.95
2022-12-03T03:38:25.018Z,3.65
2022-12-03T03:40:53.372Z,3.44
2022-12-03T03:43:22.357Z,3.65
2022-12-03T03:45:51.009Z,5.23
2022-12-03T03:48:19.577Z,6.37
2022-12-03T03:50:47.463Z,5.92
2022-12-03T03:53:15.340Z,5.18
2022-12-03T03:55:43.377Z,4.56
2022-12-03T03:58:11.269Z,4.13
2022-12-03T04:00:39.212Z,3.83
2022-12-03T04:03:06.971Z,3.55
2022-12-03T04:05:34.755Z,3.31
2022-12-03T04:08:02.575Z,3.11
2022-12-03T04:10:49.549Z,3.30
2022-12-03T04:13:17.245Z,5.04
2022-12-03T04:15:45.298Z,6.55
2022-12-03T04:18:31.946Z,7.52
2022-12-03T04:21:18.284Z,7.09
2022-12-03T04:23:46.369Z,6.11
2022-12-03T04:26:33.174Z,5.41
2022-12-03T04:29:01.209Z,4.87
2022-12-03T04:31:48.098Z,4.52
2022-12-03T04:34:34.515Z,4.19
2022-12-03T04:37:02.552Z,3.91
2022-12-03T04:39:30.616Z,3.68
2022-12-03T04:41:58.415Z,3.47
2022-12-03T04:44:38.247Z,3.32
2022-12-03T04:47:10.828Z,4.40
2022-12-03T04:49:44.440Z,6.15
2022-12-03T04:52:13.376Z,6.99
2022-12-03T04:54:41.523Z,6.42
2022-12-03T04:57:09.922Z,5.58
2022-12-03T04:59:38.512Z,4.95
2022-12-03T05:02:06.734Z,4.45
2022-12-03T05:04:34.885Z,4.14
2022-12-03T05:07:02.821Z,3.91
2022-12-03T05:09:30.599Z,3.71
2022-12-03T05:11:58.367Z,3.77
2022-12-03T05:14:26.137Z,5.12
2022-12-03T05:16:53.936Z,6.66
2022-12-03T05:19:41.808Z,7.39
2022-12-03T05:22:09.586Z,6.64
2022-12-03T05:24:37.310Z,5.86
2022-12-03T05:27:05.047Z,5.28
2022-12-03T05:29:32.735Z,4.86
2022-12-03T05:32:00.444Z,4.52
2022-12-03T05:34:28.225Z,4.28
2022-12-03T05:36:55.981Z,4.06
2022-12-03T05:39:23.663Z,3.95
2022-12-03T05:42:10.079Z,5.10
2022-12-03T05:44:37.981Z,6.95
2022-12-03T05:47:05.674Z,7.72
2022-12-03T05:49:33.435Z,7.06
2022-12-03T05:52:01.205Z,6.22
2022-12-03T05:54:29.390Z,5.58
2022-12-03T05:56:57.297Z,5.13
2022-12-03T05:59:25.014Z,4.80
2022-12-03T06:01:52.764Z,4.52
2022-12-03T06:04:20.524Z,4.27
2022-12-03T06:06:48.294Z,4.05
2022-12-03T06:09:15.973Z,3.89
2022-12-03T06:11:43.691Z,4.03
2022-12-03T06:14:11.464Z,5.59
2022-12-03T06:16:39.285Z,7.27
2022-12-03T06:19:07.034Z,7.67
2022-12-03T06:21:34.879Z,6.83
2022-12-03T06:24:02.651Z,6.04
2022-12-03T06:26:30.473Z,5.50
2022-12-03T06:28:58.290Z,5.07
2022-12-03T06:31:26.106Z,4.76
2022-12-03T06:33:54.038Z,4.52
2022-12-03T06:36:23.432Z,4.28
2022-12-03T06:38:51.385Z,4.07
2022-12-03T06:41:19.452Z,3.91
2022-12-03T06:43:47.210Z,3.77
2022-12-03T06:46:15.253Z,3.63
2022-12-03T06:48:42.991Z,3.86
2022-12-03T06:51:10.679Z,5.51
2022-12-03T06:53:38.466Z,7.20
2022-12-03T06:56:06.401Z,7.84
2022-12-03T06:58:34.220Z,7.08
2022-12-03T07:01:01.974Z,6.23
2022-12-03T07:03:29.688Z,5.58
2022-12-03T07:05:57.394Z,5.11
2022-12-03T07:08:25.189Z,4.78
2022-12-03T07:10:52.900Z,4.51
2022-12-03T07:13:20.965Z,4.27
2022-12-03T07:15:48.763Z,4.08
2022-12-03T07:18:16.908Z,3.92
2022-12-03T07:20:44.677Z,4.17
2022-12-03T07:23:12.481Z,5.70
2022-12-03T07:25:40.218Z,7.19
2022-12-03T07:28:07.972Z,7.90
2022-12-03T07:30:35.691Z,7.24
2022-12-03T07:33:03.456Z,6.40
2022-12-03T07:35:31.143Z,5.73
2022-12-03T07:37:58.868Z,5.26
2022-12-03T07:40:26.780Z,4.93
2022-12-03T07:42:54.591Z,4.64
2022-12-03T07:45:22.376Z,4.35
2022-12-03T07:47:50.109Z,4.09
2022-12-03T07:50:18.058Z,3.84
2022-12-03T07:52:45.869Z,3.94
2022-12-03T07:55:13.698Z,5.42
2022-12-03T07:57:41.475Z,7.10
2022-12-03T08:00:10.856Z,7.91
2022-12-03T08:02:38.729Z,7.26
2022-12-03T08:05:07.335Z,6.45
2022-12-03T08:07:35.603Z,5.87
2022-12-03T08:10:04.693Z,5.45
2022-12-03T08:12:40.922Z,5.12
2022-12-03T08:15:18.212Z,4.86
2022-12-03T08:17:52.078Z,4.59
2022-12-03T08:20:21.884Z,4.33
2022-12-03T08:22:52.010Z,4.13
2022-12-03T08:25:29.073Z,4.24
2022-12-03T08:28:02.885Z,5.76
2022-12-03T08:30:30.663Z,7.25
2022-12-03T08:32:58.749Z,7.89
2022-12-03T08:35:28.852Z,7.29
2022-12-03T08:38:06.549Z,6.48
2022-12-03T08:40:36.922Z,5.82
2022-12-03T08:43:20.359Z,5.36
2022-12-03T08:45:49.948Z,4.96
2022-12-03T08:48:30.069Z,4.69
2022-12-03T08:51:01.577Z,4.45
2022-12-03T08:53:30.916Z,4.21
2022-12-03T08:56:01.591Z,4.27
2022-12-03T08:58:44.308Z,5.59
2022-12-03T09:01:12.100Z,6.95
2022-12-03T09:03:49.227Z,7.61
2022-12-03T09:06:17.298Z,6.95
2022-12-03T09:08:45.152Z,6.20
2022-12-03T09:11:13.867Z,5.65
2022-12-03T09:13:41.745Z,5.22
2022-12-03T09:16:09.543Z,4.82
2022-12-03T09:18:37.342Z,4.53
2022-12-03T09:21:05.533Z,4.37
2022-12-03T09:23:33.236Z,4.24
2022-12-03T09:26:00.967Z,4.13
2022-12-03T09:28:29.037Z,4.06
2022-12-03T09:30:56.994Z,4.23
2022-12-03T09:33:25.033Z,5.59
2022-12-03T09:35:53.403Z,7.21
2022-12-03T09:38:21.385Z,8.08
2022-12-03T09:40:49.111Z,7.49
2022-12-03T09:43:17.056Z,6.71
2022-12-03T09:45:45.920Z,6.14
2022-12-03T09:48:18.777Z,5.77
2022-12-03T09:50:48.011Z,5.52
2022-12-03T09:53:21.312Z,5.28
2022-12-03T09:55:49.873Z,5.02
2022-12-03T09:58:19.056Z,4.80
2022-12-03T10:00:49.496Z,4.64
2022-12-03T10:03:24.082Z,4.73
2022-12-03T10:05:56.194Z,6.17
2022-12-03T10:08:27.008Z,7.67
2022-12-03T10:10:58.911Z,7.71
2022-12-03T10:13:29.247Z,6.95
2022-12-03T10:15:58.981Z,6.32
2022-12-03T10:18:34.488Z,5.86
2022-12-03T10:21:04.898Z,5.51
2022-12-03T10:23:32.653Z,5.24
2022-12-03T10:26:04.526Z,5.02
2022-12-03T10:28:41.143Z,4.85
2022-12-03T10:31:11.046Z,4.68
2022-12-03T10:33:41.853Z,4.55
2022-12-03T10:36:15.583Z,4.44
2022-12-03T10:38:43.584Z,4.34
2022-12-03T10:41:28.144Z,4.49
2022-12-03T10:44:18.323Z,6.03
2022-12-03T10:47:05.132Z,7.75
2022-12-03T10:49:33.183Z,7.83
2022-12-03T10:52:01.205Z,7.12
2022-12-03T10:54:31.100Z,6.52
2022-12-03T10:56:58.857Z,6.08
2022-12-03T10:59:31.947Z,5.78
2022-12-03T11:01:59.823Z,5.51
2022-12-03T11:04:27.632Z,5.29
2022-12-03T11:32:42.931Z,6.08
2022-12-03T11:35:12.836Z,5.61
2022-12-03T11:37:40.805Z,5.39
2022-12-03T11:40:17.568Z,5.21
2022-12-03T11:42:47.320Z,5.08
2022-12-03T11:45:17.942Z,4.97
2022-12-03T12:14:59.633Z,6.53
2022-12-03T12:41:51.550Z,7.07
2022-12-03T12:44:23.616Z,6.50
2022-12-03T12:46:54.243Z,6.10
2022-12-03T12:49:26.728Z,5.82
2022-12-03T12:51:54.690Z,5.58
2022-12-03T12:54:22.645Z,5.37
2022-12-03T12:56:50.456Z,5.22
2022-12-03T12:59:22.191Z,5.09
2022-12-03T13:01:50.628Z,4.97
2022-12-03T13:04:20.592Z,4.89
2022-12-03T13:06:50.536Z,5.11
2022-12-03T13:09:19.664Z,6.67
2022-12-03T13:11:53.296Z,8.31
2022-12-03T13:14:23.327Z,8.58
2022-12-03T13:16:52.755Z,7.77
2022-12-03T13:19:25.994Z,7.14
2022-12-03T13:22:00.823Z,6.72
2022-12-03T13:24:37.980Z,6.41
2022-12-03T13:27:29.534Z,6.13
2022-12-03T13:30:02.971Z,5.89
2022-12-03T13:32:37.048Z,5.71
2022-12-03T13:35:08.243Z,5.56
2022-12-03T13:37:36.971Z,5.45
2022-12-03T13:40:25.138Z,5.32
2022-12-03T13:42:54.289Z,5.18
2022-12-03T13:45:31.021Z,5.09
2022-12-03T13:48:02.342Z,5.02
2022-12-03T13:50:39.478Z,5.26
2022-12-03T13:53:34.064Z,6.90
2022-12-03T13:56:17.942Z,8.66
2022-12-03T13:58:45.691Z,9.13
2022-12-03T14:01:13.695Z,8.43
2022-12-03T14:03:41.619Z,7.72
2022-12-03T14:06:09.306Z,7.14
2022-12-03T14:08:37.427Z,6.65
2022-12-03T14:11:05.321Z,6.29
2022-12-03T14:13:33.119Z,6.04
2022-12-03T14:16:00.899Z,5.78
2022-12-03T14:18:28.679Z,5.55
2022-12-03T14:20:56.491Z,5.37
2022-12-03T14:23:24.203Z,5.22
2022-12-03T14:25:51.959Z,5.40
2022-12-03T14:28:19.645Z,6.76
2022-12-03T14:30:47.585Z,8.11
2022-12-03T14:33:15.296Z,8.81
2022-12-03T14:35:43.056Z,8.22
2022-12-03T14:38:10.744Z,7.43
2022-12-03T14:40:38.456Z,6.83
2022-12-03T14:43:06.240Z,6.38
2022-12-03T14:45:34.192Z,6.04
2022-12-03T14:48:02.103Z,5.81
2022-12-03T14:50:30.157Z,5.60
2022-12-03T14:52:57.913Z,5.42
2022-12-03T14:55:25.893Z,5.28
2022-12-03T14:57:53.680Z,5.42
2022-12-03T15:00:22.937Z,6.84
2022-12-03T15:02:50.793Z,8.37
2022-12-03T15:05:26.456Z,8.84
2022-12-03T15:07:56.489Z,8.09
2022-12-03T15:10:24.308Z,7.37
2022-12-03T15:12:52.072Z,6.81
2022-12-03T15:15:19.813Z,6.40
2022-12-03T15:17:47.548Z,6.09
2022-12-03T15:20:16.200Z,5.82
2022-12-03T15:22:44.202Z,5.61
2022-12-03T15:25:12.812Z,5.43
2022-12-03T15:27:41.561Z,5.55
2022-12-03T15:30:09.878Z,6.88
2022-12-03T15:32:37.578Z,8.22
2022-12-03T15:35:07.174Z,9.09
2022-12-03T15:37:34.973Z,8.60
2022-12-03T15:40:02.752Z,7.77
2022-12-03T15:42:30.473Z,7.05
2022-12-03T15:44:58.210Z,6.52
2022-12-03T15:47:25.992Z,6.08
2022-12-03T15:49:54.259Z,5.71
2022-12-03T15:52:22.427Z,5.44
2022-12-03T15:54:50.154Z,5.48
2022-12-03T15:57:18.004Z,6.69
2022-12-03T15:59:45.708Z,8.03
2022-12-03T16:02:13.571Z,8.72
2022-12-03T16:04:41.536Z,8.13
2022-12-03T16:07:09.536Z,7.34
2022-12-03T16:09:37.343Z,6.73
2022-12-03T16:12:07.645Z,6.23
2022-12-03T16:14:35.447Z,5.85
2022-12-03T16:17:03.210Z,5.57
2022-12-03T16:19:31.049Z,5.34
2022-12-03T16:21:58.737Z,5.36
2022-12-03T16:24:26.555Z,6.65
2022-12-03T16:26:54.277Z,8.19
2022-12-03T16:29:22.022Z,9.00
2022-12-03T16:31:49.738Z,8.29
2022-12-03T16:34:17.494Z,7.39
2022-12-03T16:36:45.779Z,6.71
2022-12-03T16:39:13.567Z,6.23
2022-12-03T16:41:41.291Z,5.88
2022-12-03T16:44:19.782Z,5.58
2022-12-03T16:46:47.504Z,5.62
2022-12-03T16:49:15.321Z,7.07
2022-12-03T16:51:43.069Z,8.50
2022-12-03T16:54:11.719Z,9.00
2022-12-03T16:56:39.386Z,8.09
2022-12-03T16:59:07.187Z,7.22
2022-12-03T17:01:35.044Z,6.59
2022-12-03T17:04:02.909Z,6.14
2022-12-03T17:06:30.773Z,5.81
2022-12-03T17:08:58.584Z,5.57
2022-12-03T17:11:26.276Z,5.37
2022-12-03T17:13:54.420Z,5.19
2022-12-03T17:16:22.512Z,5.39
2022-12-03T17:18:50.251Z,6.85
2022-12-03T17:21:17.994Z,8.29
2022-12-03T17:23:48.785Z,8.88
2022-12-03T17:26:18.293Z,8.21
2022-12-03T17:28:46.372Z,7.35
2022-12-03T17:31:14.305Z,6.66
2022-12-03T17:33:42.120Z,6.13
2022-12-03T17:36:10.360Z,5.79
2022-12-03T17:38:39.508Z,5.54
2022-12-03T17:41:08.823Z,5.53
2022-12-03T17:43:36.558Z,6.81
2022-12-03T17:46:05.192Z,8.35
2022-12-03T17:48:35.212Z,9.07
2022-12-03T17:51:03.003Z,8.41
2022-12-03T17:53:30.711Z,7.62
2022-12-03T17:55:58.483Z,7.01
2022-12-03T17:58:27.628Z,6.52
2022-12-03T18:01:00.502Z,6.11
2022-12-03T18:03:30.628Z,5.79
2022-12-03T18:05:58.561Z,5.63
2022-12-03T18:08:26.263Z,6.58
2022-12-03T18:10:54.015Z,7.97
2022-12-03T18:13:21.836Z,8.79
2022-12-03T18:15:49.636Z,8.24
2022-12-03T18:18:17.507Z,7.43
2022-12-03T18:20:45.220Z,6.75
2022-12-03T18:23:13.053Z,6.27
2022-12-03T18:25:41.601Z,5.93
2022-12-03T18:28:09.382Z,5.64
2022-12-03T18:30:37.112Z,5.41
2022-12-03T18:33:04.812Z,5.43
2022-12-03T18:35:32.620Z,6.58
2022-12-03T18:38:00.558Z,7.79
2022-12-03T18:40:28.297Z,8.54
2022-12-03T18:42:56.543Z,8.03
2022-12-03T18:45:24.556Z,7.25
2022-12-03T18:47:52.425Z,6.62
2022-12-03T18:50:20.455Z,6.19
2022-12-03T18:52:48.279Z,6.03
2022-12-03T18:55:19.835Z,7.01
2022-12-03T18:57:47.631Z,8.25
2022-12-03T19:00:16.020Z,8.79
2022-12-03T19:05:33.156Z,7.46
2022-12-03T19:08:01.970Z,6.90
2022-12-03T19:10:29.822Z,6.51
2022-12-03T19:12:57.659Z,6.17
2022-12-03T19:15:25.347Z,5.88
2022-12-03T19:17:53.110Z,6.26
2022-12-03T19:20:20.796Z,7.47
2022-12-03T19:22:48.571Z,8.41
2022-12-03T19:25:16.534Z,8.68
2022-12-03T19:27:44.250Z,8.02
2022-12-03T19:30:12.626Z,7.27
2022-12-03T19:32:40.361Z,6.74
2022-12-03T19:35:11.060Z,6.34
2022-12-03T19:37:38.951Z,5.98
2022-12-03T19:40:07.634Z,5.96
2022-12-03T19:42:35.378Z,7.02
2022-12-03T19:45:03.284Z,7.96
2022-12-03T19:47:32.995Z,8.52
2022-12-03T19:50:00.703Z,8.71
2022-12-03T19:52:28.696Z,8.08
2022-12-03T19:54:56.842Z,7.35
2022-12-03T19:57:24.934Z,6.77
2022-12-03T19:59:53.039Z,6.32
2022-12-03T20:02:21.116Z,5.98
2022-12-03T20:04:49.094Z,5.95
2022-12-03T20:07:16.822Z,6.86
2022-12-03T20:09:44.519Z,7.84
2022-12-03T20:12:12.375Z,8.46
2022-12-03T20:14:40.436Z,8.62
2022-12-03T20:17:08.420Z,7.93
2022-12-03T20:19:36.510Z,7.24
2022-12-03T20:22:04.205Z,6.77
2022-12-03T20:24:31.943Z,6.39
2022-12-03T20:26:59.622Z,6.10
2022-12-03T20:29:27.365Z,5.89
2022-12-03T20:31:55.140Z,5.93
2022-12-03T20:34:23.330Z,6.86
2022-12-03T20:36:51.806Z,7.79
2022-12-03T20:39:19.689Z,8.37
2022-12-03T20:41:47.470Z,8.77
2022-12-03T20:44:16.074Z,8.24
2022-12-03T20:46:45.546Z,7.56
2022-12-03T20:49:13.398Z,7.00
2022-12-03T20:51:42.407Z,6.56
2022-12-03T20:54:10.534Z,6.20
2022-12-03T20:56:42.109Z,6.17
2022-12-03T20:59:14.972Z,7.10
2022-12-03T21:01:43.865Z,8.32
2022-12-03T21:04:18.024Z,9.13
2022-12-03T21:06:45.862Z,8.51
2022-12-03T21:09:13.857Z,7.66
2022-12-03T21:11:42.691Z,6.97
2022-12-03T21:14:11.332Z,6.46
2022-12-03T21:17:06.626Z,6.11
2022-12-03T21:19:28.362Z,6.08
2022-12-03T21:21:56.184Z,7.28
2022-12-03T21:24:23.898Z,8.59
2022-12-03T21:26:51.700Z,9.36
2022-12-03T21:29:19.474Z,8.67
2022-12-03T21:31:47.209Z,7.79
2022-12-03T21:34:14.973Z,7.17
2022-12-03T21:36:42.769Z,6.70
2022-12-03T21:39:10.535Z,6.35
2022-12-03T21:41:38.230Z,6.05
2022-12-03T21:44:05.998Z,6.09
2022-12-03T21:47:11.017Z,7.25
2022-12-03T21:49:22.661Z,8.75
2022-12-03T21:51:50.423Z,9.36
2022-12-03T21:54:18.525Z,8.72
2022-12-03T21:56:46.345Z,7.86
2022-12-03T21:59:14.623Z,7.24
2022-12-03T22:01:46.972Z,6.80
2022-12-03T22:04:15.212Z,6.49
2022-12-03T22:06:43.133Z,6.27
2022-12-03T22:09:10.830Z,6.04
2022-12-03T22:11:38.879Z,6.09
2022-12-03T22:14:08.237Z,7.36
2022-12-03T22:16:36.048Z,8.70
2022-12-03T22:19:04.063Z,9.21
2022-12-03T22:21:31.859Z,8.52
2022-12-03T22:23:59.812Z,7.72
2022-12-03T22:26:27.659Z,7.10
2022-12-03T22:28:55.592Z,6.59
2022-12-03T22:31:23.520Z,6.20
2022-12-03T22:33:51.528Z,6.21
2022-12-03T22:36:21.408Z,7.50
2022-12-03T22:38:50.855Z,8.84
2022-12-03T22:41:19.567Z,9.50
2022-12-03T22:43:48.048Z,8.79
2022-12-03T22:46:16.541Z,7.91
2022-12-03T22:48:45.932Z,7.27
2022-12-03T22:51:25.102Z,6.74
2022-12-03T22:54:01.031Z,6.30
2022-12-03T22:56:29.620Z,5.99
2022-12-03T22:58:58.060Z,6.11
2022-12-03T23:01:31.707Z,7.61
2022-12-03T23:04:00.079Z,9.17
2022-12-03T23:06:28.913Z,9.45
2022-12-03T23:08:57.177Z,8.58
2022-12-03T23:11:25.709Z,7.72
2022-12-03T23:13:53.849Z,7.10
2022-12-03T23:16:24.565Z,6.65
2022-12-03T23:18:52.388Z,6.29
2022-12-03T23:21:28.967Z,6.49
2022-12-03T23:23:59.294Z,8.09
2022-12-03T23:26:27.954Z,9.19
2022-12-03T23:28:56.421Z,8.70
2022-12-03T23:31:25.641Z,7.82
2022-12-03T23:33:53.752Z,7.17
2022-12-03T23:36:22.943Z,6.68
2022-12-03T23:38:50.735Z,6.30
2022-12-03T23:41:21.229Z,6.01
2022-12-03T23:43:49.536Z,6.11
2022-12-03T23:46:26.102Z,7.49
2022-12-03T23:48:53.975Z,8.96
2022-12-03T23:51:24.115Z,9.46
2022-12-03T23:53:54.118Z,8.63
2022-12-03T23:56:28.033Z,7.77
2022-12-03T23:58:57.346Z,7.15
